Latest Weather Observations for King Island Airport

IDT60801

Issued at 1:02 pm EDT Monday 30 March 2015 (issued every 30 minutes, with the page automatically refreshed every 10 minutes)

About weather observations | Map of weather stations | Latest weather observations for TAS | Other Formats
Station Details ID: 098017 Name: KING ISLAND AIRPORT Lat: -39.88 Lon: 143.88 Height: 37.0 m
Data from the previous 72 hours. | See also: Recent months at King Island Airport
Date/Time
EDT
Temp
°C
App
Temp
°C
Dew
Point
Rel
Hum
%
Delta-T
°C
Wind Press
QNH
hPa
Press
MSL
hPa
Rain
since 9 am
mm
Dir
 
Spd
km/h
Gust
km/h
Spd
kts
Gust
kts
30/01:00pm 18.3 14.8 14.4 78 2.2 NW 26 32 14 17 1024.1 1024.1 0.0
30/12:30pm 18.6 15.3 14.1 75 2.6 WNW 24 30 13 16 1024.2 1024.2 0.0
30/12:00pm 18.5 15.6 14.0 75 2.6 WNW 22 30 12 16 1024.1 1024.1 0.0
30/11:30am 18.1 15.3 14.4 79 2.1 WNW 22 28 12 15 1024.2 1024.2 0.0
30/11:00am 18.2 15.2 14.7 80 2.0 WNW 24 32 13 17 1024.2 1024.2 0.0
30/10:30am 17.7 14.4 14.0 79 2.1 W 24 32 13 17 1024.0 1024.0 0.0
30/10:04am 17.3 14.5 14.4 83 1.7 W 22 32 12 17 1023.8 1023.8 0.0
30/10:00am 17.0 14.3 14.5 85 1.4 W 22 32 12 17 1023.8 1023.8 0.0
30/09:30am 15.2 12.6 13.1 87 1.2 WSW 19 26 10 14 1023.4 1023.4 0.0
30/09:22am 15.3 12.0 12.8 85 1.4 W 22 30 12 16 1023.4 1023.4 0.0
30/09:00am 16.2 13.7 14.0 87 1.2 WNW 20 26 11 14 1023.1 1023.1 0.0
30/08:30am 15.8 13.3 13.5 86 1.3 WNW 19 26 10 14 1022.9 1022.9 0.0
30/08:00am 15.6 12.9 12.9 84 1.5 WNW 19 26 10 14 1022.6 1022.6 0.0
30/07:30am 15.2 12.4 13.2 88 1.1 W 20 28 11 15 1022.4 1022.3 0.0
30/07:00am 15.3 12.9 13.7 90 0.9 W 19 24 10 13 1022.2 1022.1 0.0
30/06:30am 15.7 13.2 14.1 90 0.9 WNW 20 30 11 16 1021.8 1021.7 0.0
30/06:00am 15.5 12.6 14.0 91 0.8 WNW 22 32 12 17 1021.7 1021.6 0.0
30/05:30am 15.5 13.0 14.0 91 0.8 WNW 20 28 11 15 1021.6 1021.5 0.0
30/05:00am 15.6 12.8 14.3 92 0.7 WNW 22 28 12 15 1021.5 1021.4 0.0
30/04:56am 15.6 12.8 14.3 92 0.7 WNW 22 28 12 15 1021.5 1021.4 0.0
30/04:30am 15.3 13.0 14.0 92 0.7 WNW 19 32 10 17 1021.5 1021.4 0.0
30/04:19am 15.2 12.9 14.1 93 0.6 WNW 19 24 10 13 1021.5 1021.4 0.0
30/04:00am 14.8 12.8 13.8 94 0.6 WNW 17 19 9 10 1021.6 1021.5 0.0
30/03:30am 14.9 12.4 13.6 92 0.7 WNW 19 22 10 12 1021.8 1021.7 0.0
30/03:00am 14.9 12.4 13.4 91 0.8 WNW 19 24 10 13 1021.9 1021.8 0.0
30/02:30am 14.8 12.4 13.7 93 0.6 WNW 19 26 10 14 1022.0 1021.9 0.0
30/02:00am 15.1 13.2 14.1 94 0.6 NW 17 19 9 10 1021.9 1021.8 0.0
30/01:30am 15.2 12.9 14.2 94 0.6 NW 19 22 10 12 1021.9 1021.8 0.0
30/01:00am 15.0 12.6 13.7 92 0.7 WNW 19 22 10 12 1022.0 1021.9 0.0
30/12:30am 15.3 13.3 14.0 92 0.7 WNW 17 24 9 13 1022.1 1022.0 0.0
30/12:00am 15.4 13.4 13.9 91 0.8 WNW 17 20 9 11 1022.2 1022.1 0.0
 
Date/Time
EDT
Temp
°C
App
Temp
°C
Dew
Point
Rel
Hum
%
Delta-T
°C
Wind Press
QNH
hPa
Press
MSL
hPa
Rain
since 9 am
mm
Dir
 
Spd
km/h
Gust
km/h
Spd
kts
Gust
kts
29/11:30pm 15.6 13.1 14.1 91 0.8 WNW 20 26 11 14 1022.4 1022.3 0.0
29/11:00pm 15.3 12.7 13.8 91 0.8 WNW 20 28 11 15 1022.5 1022.5 0.0
29/10:30pm 15.4 12.8 13.9 91 0.8 WNW 20 28 11 15 1022.5 1022.5 0.0
29/10:00pm 15.6 12.7 14.0 90 0.9 WNW 22 30 12 16 1022.5 1022.5 0.0
29/09:30pm 15.6 11.9 13.8 89 1.0 WNW 26 33 14 18 1022.4 1022.3 0.0
29/09:00pm 15.4 12.0 13.6 89 1.0 WNW 24 32 13 17 1022.1 1022.0 0.0
29/08:52pm 15.5 11.7 13.7 89 1.0 WNW 26 33 14 18 1022.0 1021.9 0.0
29/08:33pm 15.7 12.0 13.9 89 1.0 WNW 26 33 14 18 1021.8 1021.7 0.0
29/08:30pm 15.8 12.1 14.0 89 1.0 WNW 26 33 14 18 1021.8 1021.7 0.0
29/08:00pm 15.9 13.0 14.1 89 1.0 WNW 22 30 12 16 1021.7 1021.6 0.0
29/07:30pm 15.8 12.4 13.8 88 1.1 WNW 24 33 13 18 1021.4 1021.3 0.0
29/07:00pm 16.5 12.4 13.8 84 1.5 WNW 28 35 15 19 1021.1 1021.0 0.0
29/06:30pm 16.8 13.5 13.9 83 1.6 WNW 24 33 13 18 1020.9 1020.8 0.0
29/06:00pm 17.3 13.3 14.2 82 1.8 WNW 28 33 15 18 1020.7 1020.6 0.0
29/05:30pm 17.2 12.9 13.3 78 2.2 WNW 28 37 15 20 1020.7 1020.6 0.0
29/05:00pm 17.7 13.5 13.4 76 2.4 WNW 28 37 15 20 1020.7 1020.6 0.0
29/04:30pm 17.7 12.6 13.0 74 2.6 WNW 32 39 17 21 1020.6 1020.5 0.0
29/04:00pm 18.3 13.8 13.8 75 2.6 WNW 30 39 16 21 1020.7 1020.6 0.0
29/03:30pm 18.6 13.6 14.1 75 2.6 WNW 33 41 18 22 1020.7 1020.6 0.0
29/03:00pm 17.3 12.4 13.8 80 2.0 WNW 32 41 17 22 1020.8 1020.7 0.0
29/02:30pm 18.1 12.5 13.4 74 2.7 WNW 35 48 19 26 1020.8 1020.7 0.0
29/02:00pm 17.9 12.4 13.6 76 2.4 NW 35 41 19 22 1020.9 1020.8 0.0
29/01:30pm 18.0 12.0 13.3 74 2.7 NW 37 43 20 23 1021.0 1020.9 0.0
29/01:00pm 17.5 12.2 13.0 75 2.5 NW 33 41 18 22 1021.0 1020.9 0.0
29/12:30pm 17.8 11.7 12.9 73 2.7 NW 37 46 20 25 1020.9 1020.8 0.0
29/12:00pm 17.3 12.2 13.2 77 2.3 WNW 32 41 17 22 1021.0 1020.9 0.0
29/11:30am 17.1 11.7 12.8 76 2.4 WNW 33 41 18 22 1021.0 1020.9 0.0
29/11:00am 17.1 11.3 12.8 76 2.4 WNW 35 43 19 23 1021.1 1021.0 0.0
29/10:30am 16.3 10.4 12.5 78 2.1 WNW 35 44 19 24 1021.0 1020.9 0.0
29/10:00am 16.6 11.8 12.9 79 2.1 WNW 30 37 16 20 1020.9 1020.8 0.0
29/09:30am 15.6 10.6 12.2 80 1.9 WNW 30 39 16 21 1020.9 1020.8 0.0
29/09:00am 15.7 10.7 12.3 80 1.9 WNW 30 37 16 20 1020.6 1020.5 0.0
29/08:30am 15.5 10.0 11.7 78 2.1 NW 32 39 17 21 1020.5 1020.4 0.0
29/08:00am 15.1 10.1 12.1 82 1.6 NW 30 37 16 20 1020.3 1020.2 0.0
29/07:30am 14.6 9.3 11.4 81 1.7 NW 30 37 16 20 1020.1 1020.0 0.0
29/07:00am 14.8 10.0 11.8 82 1.6 WNW 28 37 15 20 1020.1 1020.0 0.0
29/06:30am 15.0 10.9 11.4 79 1.9 NW 24 30 13 16 1019.8 1019.7 0.0
29/06:00am 14.8 10.2 11.0 78 2.0 NW 26 32 14 17 1019.8 1019.7 0.0
29/05:30am 14.9 9.5 10.9 77 2.1 WNW 30 35 16 19 1019.8 1019.7 0.0
29/05:00am 14.9 9.1 10.7 76 2.2 WNW 32 37 17 20 1019.6 1019.5 0.0
29/04:30am 14.9 9.8 10.5 75 2.3 WNW 28 37 15 20 1019.7 1019.6 0.0
29/04:00am 14.8 10.1 10.8 77 2.1 WNW 26 33 14 18 1019.6 1019.5 0.0
29/03:30am 14.4 9.7 10.6 78 2.0 NW 26 32 14 17 1019.4 1019.3 0.0
29/03:00am 14.8 9.6 10.2 74 2.4 NW 28 35 15 19 1019.6 1019.5 0.0
29/02:30am 14.7 9.9 10.3 75 2.3 NW 26 32 14 17 1019.9 1019.8 0.0
29/02:00am 14.8 9.5 9.8 72 2.6 NW 28 35 15 19 1020.2 1020.1 0.0
29/01:30am 14.6 9.4 9.0 69 2.9 NW 26 33 14 18 1020.3 1020.2 0.0
29/01:00am 14.9 9.9 9.5 70 2.8 NW 26 32 14 17 1020.6 1020.5 0.0
29/12:30am 14.8 10.1 9.2 69 2.9 NW 24 28 13 15 1020.8 1020.7 0.0
29/12:00am 14.3 9.8 8.7 69 2.8 WNW 22 26 12 14 1021.2 1021.1 0.0
 
Date/Time
EDT
Temp
°C
App
Temp
°C
Dew
Point
Rel
Hum
%
Delta-T
°C
Wind Press
QNH
hPa
Press
MSL
hPa
Rain
since 9 am
mm
Dir
 
Spd
km/h
Gust
km/h
Spd
kts
Gust
kts
28/11:30pm 14.6 10.3 9.2 70 2.8 WNW 22 32 12 17 1021.4 1021.3 0.0
28/11:00pm 14.6 9.8 8.8 68 2.9 NW 24 30 13 16 1021.6 1021.5 0.0
28/10:30pm 14.4 9.6 8.8 69 2.8 WNW 24 30 13 16 1021.8 1021.7 0.0
28/10:00pm 14.4 11.0 9.0 70 2.7 WNW 17 26 9 14 1022.0 1021.9 0.0
28/09:30pm 14.3 10.1 8.3 67 3.0 WNW 20 28 11 15 1022.0 1021.9 0.0
28/09:00pm 14.4 9.6 9.0 70 2.7 WNW 24 30 13 16 1021.9 1021.8 0.0
28/08:30pm 14.3 10.5 9.7 74 2.4 WNW 20 26 11 14 1021.8 1021.7 0.0
28/08:00pm 14.3 10.3 9.1 71 2.6 WNW 20 32 11 17 1021.7 1021.6 0.0
28/07:30pm 14.2 10.6 9.8 75 2.3 WNW 19 26 10 14 1021.7 1021.6 0.0
28/07:00pm 14.1 10.8 9.5 74 2.4 W 17 22 9 12 1021.7 1021.6 0.0
28/06:30pm 14.1 11.0 10.3 78 2.0 W 17 24 9 13 1021.7 1021.6 0.0
28/06:00pm 14.1 10.4 10.1 77 2.1 W 20 28 11 15 1021.8 1021.7 0.0
28/05:30pm 14.6 10.7 9.6 72 2.6 W 20 28 11 15 1022.0 1021.9 0.0
28/05:00pm 15.3 11.3 9.0 66 3.2 WNW 20 30 11 16 1022.3 1022.2 0.0
28/04:30pm 14.7 10.1 9.5 71 2.7 W 24 33 13 18 1022.7 1022.7 0.0
28/04:00pm 15.1 10.3 9.0 67 3.1 W 24 32 13 17 1022.8 1022.8 0.0
28/03:30pm 15.4 11.8 10.6 73 2.5 W 20 32 11 17 1022.9 1022.9 0.0
28/03:00pm 15.7 11.6 10.0 69 3.0 WNW 22 33 12 18 1023.0 1023.0 0.0
28/02:30pm 16.1 12.1 10.4 69 3.0 WNW 22 30 12 16 1023.2 1023.2 0.0
28/02:00pm 15.6 11.2 10.4 71 2.7 WNW 24 30 13 16 1023.6 1023.6 0.0
28/01:30pm 15.1 11.5 10.5 74 2.4 W 20 30 11 16 1023.8 1023.8 0.0
28/01:00pm 14.7 10.9 11.1 79 1.9 W 22 30 12 16 1024.2 1024.2 0.0
28/12:30pm 14.5 10.7 9.9 74 2.4 W 20 30 11 16 1024.4 1024.4 0.0
28/12:00pm 15.3 11.6 10.3 72 2.6 W 20 28 11 15 1024.7 1024.7 0.0
28/11:30am 15.1 11.8 10.9 76 2.2 W 19 28 10 15 1024.8 1024.8 0.0
28/11:00am 14.3 11.2 11.5 83 1.5 WSW 19 26 10 14 1024.9 1024.9 0.0
28/10:30am 13.5 10.5 10.7 83 1.5 WNW 17 22 9 12 1025.1 1025.1 0.0
28/10:00am 13.6 11.6 11.5 87 1.1 W 13 19 7 10 1025.1 1025.1 0.0
28/09:30am 13.5 11.4 11.0 85 1.3 W 13 17 7 9 1024.9 1024.9 0.0
28/09:00am 12.4 9.5 11.1 92 0.7 WSW 17 20 9 11 1024.9 1024.9 1.6
28/08:30am 11.8 10.0 11.0 95 0.4 SW 11 13 6 7 1024.7 1024.7 1.6
28/08:00am 11.6 9.4 10.8 95 0.4 SW 13 17 7 9 1024.5 1024.5 1.4
28/07:30am 11.7 10.2 10.6 93 0.6 SW 9 13 5 7 1024.1 1024.1 1.4
28/07:00am 11.5 10.3 10.2 92 0.7 SW 7 13 4 7 1023.8 1023.8 1.4
28/06:30am 11.6 10.1 10.5 93 0.6 SW 9 15 5 8 1023.8 1023.8 1.4
28/06:00am 11.5 10.0 10.7 95 0.4 SSW 9 11 5 6 1023.7 1023.7 1.4
28/05:30am 11.5 9.0 10.9 96 0.3 SW 15 19 8 10 1023.7 1023.7 1.4
28/05:00am 11.4 9.6 10.8 96 0.3 SW 11 15 6 8 1023.5 1023.5 1.4
28/04:46am 11.6 8.7 11.0 96 0.3 WSW 17 20 9 11 1023.6 1023.6 1.2
28/04:38am 11.7 10.0 11.1 96 0.3 SW 11 17 6 9 1023.6 1023.6 1.2
28/04:30am 11.8 9.7 11.2 96 0.3 SW 13 22 7 12 1023.6 1023.6 1.2
28/04:00am 11.7 10.3 10.9 95 0.4 SW 9 13 5 7 1023.6 1023.6 1.0
28/03:59am 11.7 10.3 10.9 95 0.4 SW 9 13 5 7 1023.6 1023.6 1.0
28/03:32am 12.1 9.2 11.0 93 0.6 WSW 17 28 9 15 1023.8 1023.8 0.8
28/03:30am 12.0 9.5 10.9 93 0.6 WSW 15 28 8 15 1023.8 1023.8 0.8
28/03:29am 12.0 9.4 10.7 92 0.7 WSW 15 28 8 15 1023.8 1023.8 0.8
28/03:00am 12.0 9.2 10.1 88 1.0 SW 15 19 8 10 1024.0 1024.0 0.4
28/02:30am 11.6 9.6 10.2 91 0.7 SW 11 13 6 7 1024.1 1024.1 0.4
28/02:00am 12.0 9.4 10.7 92 0.7 WSW 15 19 8 10 1024.3 1024.3 0.4
28/01:30am 12.8 8.7 10.2 84 1.3 SW 22 32 12 17 1024.2 1024.2 0.4
28/01:00am 12.6 10.0 9.4 81 1.6 SSW 13 17 7 9 1024.3 1024.3 0.4
28/12:30am 13.1 9.8 9.7 80 1.7 SSW 17 22 9 12 1024.5 1024.5 0.4
28/12:00am 13.1 8.4 9.2 77 2.0 SW 24 32 13 17 1024.6 1024.6 0.4
 
Date/Time
EDT
Temp
°C
App
Temp
°C
Dew
Point
Rel
Hum
%
Delta-T
°C
Wind Press
QNH
hPa
Press
MSL
hPa
Rain
since 9 am
mm
Dir
 
Spd
km/h
Gust
km/h
Spd
kts
Gust
kts
27/11:30pm 13.0 8.7 9.4 79 1.8 SW 22 32 12 17 1024.7 1024.7 0.4
27/11:00pm 13.0 10.5 9.8 81 1.6 SW 13 19 7 10 1024.6 1024.6 0.2
27/10:30pm 12.6 10.9 11.2 91 0.7 S 11 17 6 9 1024.7 1024.7 0.2
27/10:00pm 13.1 9.7 10.5 84 1.3 SW 19 24 10 13 1024.8 1024.8 0.2
27/09:30pm 12.8 9.1 10.3 85 1.3 SW 20 28 11 15 1024.6 1024.6 0.2
27/09:00pm 13.3 8.4 9.9 80 1.7 SW 26 33 14 18 1024.3 1024.3 0.2
27/08:30pm 13.5 9.4 10.1 80 1.8 SW 22 32 12 17 1024.1 1024.1 0.2
27/08:00pm 13.6 7.9 9.8 78 1.9 SW 30 37 16 20 1023.8 1023.8 0.2
27/07:30pm 13.6 8.4 10.4 81 1.7 SW 28 37 15 20 1023.5 1023.5 0.2
27/07:00pm 13.7 8.1 10.3 80 1.8 SW 30 37 16 20 1023.1 1023.1 0.2
27/06:30pm 13.4 8.6 10.4 82 1.6 SSW 26 33 14 18 1022.9 1022.9 0.2
27/06:00pm 12.9 8.1 10.4 85 1.3 SW 26 35 14 19 1022.7 1022.7 0.2
27/05:30pm 14.3 8.7 10.3 77 2.1 SW 30 37 16 20 1022.5 1022.5 0.0
27/05:00pm 13.7 8.1 10.3 80 1.8 SW 30 39 16 21 1022.4 1022.3 0.0
27/04:30pm 14.5 8.8 9.7 73 2.5 SW 30 37 16 20 1022.3 1022.2 0.0
27/04:00pm 15.1 9.0 9.7 70 2.8 SW 32 39 17 21 1022.3 1022.2 0.0
27/03:30pm 15.8 9.1 9.5 66 3.3 SW 35 46 19 25 1022.3 1022.2 0.0
27/03:00pm 14.9 8.5 9.5 70 2.8 SW 33 43 18 23 1022.3 1022.2 0.0
27/02:30pm 15.5 7.9 9.2 66 3.2 SW 39 50 21 27 1022.3 1022.2 0.0
27/02:00pm 14.3 7.8 9.1 71 2.6 SW 33 48 18 26 1022.4 1022.3 0.0
27/01:30pm 14.4 7.1 8.8 69 2.8 SW 37 50 20 27 1022.4 1022.3 0.0

Other Formats:

Comma delimited format used in spreadsheet applications
http://www.bom.gov.au/fwo/IDT60801/IDT60801.94850.axf

JavaScript Object Notation format (JSON) in row-major order
http://www.bom.gov.au/fwo/IDT60801/IDT60801.94850.json